Time;durP1;ratioP1;P1;durP2;ratioP2;P2;SDS_P1;SDS_P2;PMS_P1;PMS_P2;Temp;Humidity;BMP_temperature;BMP_pressure;BME280_temperature;BME280_humidity;BME280_pressure;Samples;Min_cycle;Max_cycle;Signal;HPM_P1;HPM_P2
2023/02/15 00:01:15;;;;;;;22.27;14.93;;;;;;;1.37;92.40;96749.19;5010937;28;20211;-80
2023/02/15 00:03:40;;;;;;;21.60;14.57;;;;;;;1.33;92.51;96749.38;5008550;28;20214;-78
2023/02/15 00:06:05;;;;;;;18.50;13.73;;;;;;;1.33;92.49;96742.53;5010238;28;20202;-79
2023/02/15 00:08:31;;;;;;;22.60;14.47;;;;;;;1.39;93.14;96747.38;5028266;28;20677;-79
2023/02/15 00:11:39;;;;;;;21.50;13.57;;;;;;;1.38;92.75;96752.56;5024659;28;20195;-80
2023/02/15 00:14:04;;;;;;;20.10;13.23;;;;;;;1.34;93.49;96744.19;5022666;28;20242;-80
2023/02/15 00:16:30;;;;;;;21.27;14.17;;;;;;;1.30;93.41;96744.38;5029593;28;20195;-79
2023/02/15 00:18:55;;;;;;;22.07;14.10;;;;;;;1.29;93.90;96756.34;5028073;28;20187;-78
2023/02/15 00:21:20;;;;;;;19.17;13.20;;;;;;;1.25;93.74;96752.25;5019854;28;20221;-79
2023/02/15 00:23:46;;;;;;;22.00;13.23;;;;;;;1.19;93.56;96738.84;5026313;28;20215;-79
2023/02/15 00:26:11;;;;;;;19.93;14.37;;;;;;;1.14;93.72;96746.69;5017413;28;20218;-80
2023/02/15 00:28:37;;;;;;;19.43;14.23;;;;;;;1.10;94.44;96737.50;5018738;28;20194;-80
2023/02/15 00:31:07;;;;;;;21.87;13.97;;;;;;;1.05;93.79;96737.66;5032778;28;20178;-80
2023/02/15 00:33:32;;;;;;;20.23;13.13;;;;;;;0.98;93.65;96738.00;5013094;28;20211;-80
2023/02/15 00:35:59;;;;;;;21.17;13.43;;;;;;;0.94;93.40;96746.66;5032048;28;20183;-80
2023/02/15 00:38:24;;;;;;;18.27;13.70;;;;;;;0.90;93.48;96740.03;5004395;28;20682;-78
2023/02/15 00:40:57;;;;;;;19.57;13.17;;;;;;;0.88;94.18;96734.09;5008838;28;20214;-80
2023/02/15 00:43:22;;;;;;;23.37;14.73;;;;;;;0.82;93.83;96736.03;5016168;28;20240;-78
2023/02/15 00:45:47;;;;;;;22.90;15.17;;;;;;;0.77;93.76;96735.34;5004756;28;20722;-80
2023/02/15 00:48:13;;;;;;;22.27;14.07;;;;;;;0.78;94.19;96731.91;5017736;28;20265;-80
2023/02/15 00:50:38;;;;;;;23.87;14.07;;;;;;;0.75;94.05;96736.31;5031730;28;20551;-79
2023/02/15 00:53:03;;;;;;;21.07;14.50;;;;;;;0.74;93.89;96732.94;5017424;28;20218;-79
2023/02/15 00:55:29;;;;;;;22.00;14.10;;;;;;;0.74;94.69;96738.03;5018332;28;20191;-78
2023/02/15 00:57:54;;;;;;;22.40;14.37;;;;;;;0.70;94.37;96736.47;5010312;28;20189;-79
2023/02/15 01:00:19;;;;;;;20.33;14.10;;;;;;;0.68;94.61;96734.88;5027483;28;20561;-80
2023/02/15 01:02:45;;;;;;;19.73;13.83;;;;;;;0.64;94.55;96725.69;5012208;28;20714;-79
2023/02/15 01:05:10;;;;;;;22.63;15.00;;;;;;;0.66;94.57;96734.94;5006425;28;20191;-79
2023/02/15 01:07:35;;;;;;;24.20;14.30;;;;;;;0.64;94.85;96730.78;5031551;28;20183;-79
2023/02/15 01:10:00;;;;;;;21.23;13.23;;;;;;;0.62;95.29;96730.84;5011068;28;20218;-79
2023/02/15 01:12:26;;;;;;;22.80;14.40;;;;;;;0.61;95.11;96718.94;5032107;28;20238;-80
2023/02/15 01:14:51;;;;;;;22.00;13.40;;;;;;;0.59;94.89;96718.16;5031433;28;21160;-78
2023/02/15 01:17:17;;;;;;;17.50;11.87;;;;;;;0.55;94.89;96716.63;5032365;28;20544;-78
2023/02/15 01:19:42;;;;;;;18.30;12.43;;;;;;;0.54;95.16;96720.09;5023337;28;20191;-78
2023/02/15 01:22:07;;;;;;;16.87;12.50;;;;;;;0.53;95.05;96720.94;5026116;28;20210;-79
2023/02/15 01:24:32;;;;;;;16.67;12.40;;;;;;;0.48;95.03;96721.13;5011208;28;20186;-79
2023/02/15 01:26:58;;;;;;;17.43;11.57;;;;;;;0.42;95.16;96720.53;5024367;28;20186;-79
2023/02/15 01:29:23;;;;;;;17.10;10.57;;;;;;;0.39;95.51;96725.75;5004780;28;20194;-79
2023/02/15 01:31:48;;;;;;;16.00;11.60;;;;;;;0.40;95.16;96729.97;5026265;28;20591;-79
2023/02/15 01:34:14;;;;;;;14.80;10.83;;;;;;;0.35;95.28;96735.25;5029696;28;20328;-78
2023/02/15 01:36:39;;;;;;;16.87;10.90;;;;;;;0.31;95.14;96727.75;5008682;28;20230;-78
2023/02/15 01:39:04;;;;;;;14.13;10.57;;;;;;;0.26;95.14;96728.75;5017272;28;20254;-79
2023/02/15 01:41:30;;;;;;;16.67;10.77;;;;;;;0.20;95.41;96713.66;5010346;28;20232;-79
2023/02/15 01:44:01;;;;;;;13.33;9.73;;;;;;;0.26;95.39;96725.38;5010278;28;20757;-79
2023/02/15 01:46:44;;;;;;;14.47;10.30;;;;;;;0.24;95.42;96722.88;5023545;28;20240;-79
2023/02/15 01:49:13;;;;;;;13.90;10.00;;;;;;;0.21;95.23;96717.06;5036887;28;20193;-80
2023/02/15 01:51:41;;;;;;;15.10;11.13;;;;;;;0.19;95.30;96722.22;5029804;28;20179;-79
2023/02/15 01:54:27;;;;;;;14.97;10.93;;;;;;;0.19;95.39;96719.66;5032637;28;20761;-78
2023/02/15 01:56:55;;;;;;;16.27;10.93;;;;;;;0.18;95.18;96722.28;5027482;28;20190;-79
2023/02/15 01:59:21;;;;;;;16.53;11.17;;;;;;;0.15;95.57;96713.00;5014275;28;20194;-79
2023/02/15 02:01:48;;;;;;;17.20;12.17;;;;;;;0.11;95.78;96714.00;5026622;28;20264;-79
2023/02/15 02:04:18;;;;;;;16.83;12.40;;;;;;;0.11;95.38;96713.19;5031608;28;20214;-78
2023/02/15 02:06:46;;;;;;;17.27;12.37;;;;;;;0.09;95.93;96712.38;5017760;28;20186;-78
2023/02/15 02:09:12;;;;;;;16.63;12.13;;;;;;;0.02;95.82;96716.91;5037714;28;20624;-79
2023/02/15 02:11:39;;;;;;;16.43;11.77;;;;;;;0.02;96.16;96706.69;5027888;28;20242;-78
2023/02/15 02:14:04;;;;;;;20.90;12.10;;;;;;;0.02;95.93;96716.91;5031626;28;20211;-78
2023/02/15 02:16:48;;;;;;;17.80;12.10;;;;;;;-0.01;96.11;96711.88;5031831;28;20194;-77
2023/02/15 02:19:39;;;;;;;15.17;10.87;;;;;;;-0.05;95.63;96700.13;5041317;28;20190;-79
2023/02/15 02:22:37;;;;;;;18.83;12.23;;;;;;;-0.13;95.85;96691.91;5040025;28;20211;-79
2023/02/15 02:25:28;;;;;;;17.00;10.53;;;;;;;-0.12;96.18;96683.34;5034132;28;20199;-79
2023/02/15 02:28:14;;;;;;;15.33;10.50;;;;;;;-0.08;95.88;96695.97;5036616;28;20186;-79
2023/02/15 02:31:00;;;;;;;15.67;10.87;;;;;;;-0.13;95.15;96689.34;5032897;28;20192;-79
2023/02/15 02:33:42;;;;;;;15.40;11.17;;;;;;;-0.18;96.07;96689.50;5033691;28;20276;-79
2023/02/15 02:36:18;;;;;;;17.37;10.97;;;;;;;-0.15;96.79;96688.56;5036029;28;20183;-79
2023/02/15 02:39:08;;;;;;;15.80;10.90;;;;;;;-0.13;95.67;96679.13;5028859;28;20195;-78
2023/02/15 02:41:58;;;;;;;14.77;11.07;;;;;;;-0.15;95.62;96686.84;5030988;28;20227;-79
2023/02/15 02:44:44;;;;;;;15.87;11.20;;;;;;;-0.17;95.89;96680.97;5033536;28;20221;-78
2023/02/15 02:47:19;;;;;;;16.40;11.80;;;;;;;-0.14;95.86;96685.13;5020410;28;20210;-79
2023/02/15 02:49:45;;;;;;;19.17;14.80;;;;;;;-0.22;96.24;96675.19;5030789;28;20193;-79
2023/02/15 02:52:40;;;;;;;20.57;13.67;;;;;;;-0.16;96.05;96674.16;5031045;28;20186;-79
2023/02/15 02:55:16;;;;;;;19.47;12.67;;;;;;;-0.16;95.58;96671.59;5020019;28;20194;-79
2023/02/15 02:57:53;;;;;;;21.13;13.60;;;;;;;-0.19;95.76;96671.69;5032170;28;20195;-78
2023/02/15 03:00:21;;;;;;;19.93;13.47;;;;;;;-0.22;95.60;96667.53;5012290;28;20190;-78
2023/02/15 03:02:50;;;;;;;18.60;12.27;;;;;;;-0.16;96.65;96669.03;5019393;28;20573;-79
2023/02/15 03:05:19;;;;;;;18.10;12.30;;;;;;;-0.20;96.52;96662.38;5029331;28;20191;-79
2023/02/15 03:07:50;;;;;;;16.13;11.33;;;;;;;-0.19;97.89;96662.31;5031626;28;20187;-79
2023/02/15 03:10:15;;;;;;;14.03;10.10;;;;;;;-0.10;97.19;96666.25;5023454;28;20178;-78
2023/02/15 03:12:41;;;;;;;13.37;9.53;;;;;;;-0.01;96.38;96661.63;5026370;28;20553;-79
2023/02/15 03:15:10;;;;;;;13.87;9.67;;;;;;;-0.03;97.83;96658.31;5026112;28;20384;-79
2023/02/15 03:17:38;;;;;;;11.63;8.77;;;;;;;-0.05;96.88;96659.25;5021180;28;20186;-79
2023/02/15 03:20:09;;;;;;;14.93;9.57;;;;;;;-0.11;97.18;96660.31;5033426;28;20190;-79
2023/02/15 03:22:38;;;;;;;13.33;8.67;;;;;;;-0.11;96.93;96659.47;5034186;28;20203;-79
2023/02/15 03:25:11;;;;;;;13.33;9.03;;;;;;;-0.11;96.64;96662.88;5025929;28;20225;-78
2023/02/15 03:27:40;;;;;;;13.10;8.90;;;;;;;-0.16;96.59;96657.09;5006018;28;20187;-79
2023/02/15 03:30:06;;;;;;;12.67;8.30;;;;;;;-0.15;96.90;96665.59;5018955;28;20190;-79
2023/02/15 03:32:33;;;;;;;12.17;8.27;;;;;;;-0.19;96.96;96657.19;5017822;28;20209;-79
2023/02/15 03:34:58;;;;;;;12.73;8.60;;;;;;;-0.22;96.79;96664.97;5024241;28;20194;-79
2023/02/15 03:37:44;;;;;;;9.83;7.30;;;;;;;-0.15;97.34;96663.88;5029207;28;20198;-80
2023/02/15 03:43:11;;;;;;;12.00;7.17;;;;;;;-0.22;97.10;96657.31;5021659;28;20221;-79
2023/02/15 03:45:37;;;;;;;9.13;6.77;;;;;;;-0.13;97.60;96668.91;5005797;28;20224;-79
2023/02/15 03:48:03;;;;;;;9.47;6.50;;;;;;;-0.12;97.46;96662.91;5023481;28;20273;-80
2023/02/15 03:53:20;;;;;;;10.50;6.33;;;;;;;-0.12;97.56;96665.47;5022639;28;20230;-79
2023/02/15 03:55:49;;;;;;;10.53;6.50;;;;;;;-0.10;97.26;96659.41;5021606;28;20193;-80
2023/02/15 04:03:51;;;;;;;8.27;5.63;;;;;;;0.01;98.38;96653.09;5021034;28;20241;-79
2023/02/15 04:06:17;;;;;;;7.63;5.77;;;;;;;0.02;98.31;96650.50;5027618;28;20194;-79
2023/02/15 04:11:26;;;;;;;6.47;5.13;;;;;;;0.08;98.19;96647.69;5026115;28;20225;-79
2023/02/15 04:13:56;;;;;;;7.57;5.50;;;;;;;0.07;98.29;96640.09;5026950;28;20215;-78
2023/02/15 04:16:22;;;;;;;6.00;4.60;;;;;;;0.13;98.13;96648.38;5026499;28;20642;-78
2023/02/15 04:27:02;;;;;;;4.43;3.97;;;;;;;0.25;98.86;96660.66;5021154;28;20228;-79
2023/02/15 04:29:27;;;;;;;5.93;4.23;;;;;;;0.26;98.84;96659.78;5020598;28;20182;-79
2023/02/15 04:31:54;;;;;;;5.50;4.20;;;;;;;0.28;98.73;96654.63;5027982;28;20230;-79
2023/02/15 04:34:20;;;;;;;6.13;4.43;;;;;;;0.28;98.45;96655.47;5036204;28;20228;-78
2023/02/15 04:36:45;;;;;;;6.20;4.57;;;;;;;0.25;97.92;96658.13;5017593;28;20269;-79
2023/02/15 04:39:15;;;;;;;5.63;4.10;;;;;;;0.19;97.75;96654.97;5025852;28;20194;-79
2023/02/15 04:41:40;;;;;;;5.73;4.67;;;;;;;0.09;97.37;96651.94;5029644;28;20218;-79
2023/02/15 04:44:06;;;;;;;6.27;4.90;;;;;;;0.00;97.53;96654.84;5005515;28;20722;-79
2023/02/15 04:46:31;;;;;;;7.00;5.03;;;;;;;-0.06;97.72;96648.22;5017120;28;20554;-79
2023/02/15 04:48:57;;;;;;;5.50;4.90;;;;;;;-0.10;96.97;96656.03;5023406;28;20232;-79
2023/02/15 04:51:22;;;;;;;5.83;4.33;;;;;;;-0.10;97.56;96653.47;5016218;28;20183;-79
2023/02/15 04:53:48;;;;;;;5.93;4.87;;;;;;;-0.19;97.08;96646.16;5005440;28;20304;-79
2023/02/15 04:56:13;;;;;;;6.67;4.97;;;;;;;-0.23;97.43;96650.56;5020461;28;20195;-78
2023/02/15 04:58:40;;;;;;;5.40;4.53;;;;;;;-0.24;97.21;96637.84;5022682;28;20183;-80
2023/02/15 05:01:07;;;;;;;4.87;4.37;;;;;;;-0.30;96.92;96637.16;5021439;28;20206;-80
2023/02/15 05:03:32;;;;;;;5.83;5.20;;;;;;;-0.31;96.95;96634.69;5005172;28;20217;-82
2023/02/15 05:05:57;;;;;;;6.20;4.73;;;;;;;-0.37;97.11;96633.16;5016098;28;20201;-80
2023/02/15 05:08:22;;;;;;;5.93;4.60;;;;;;;-0.36;97.20;96629.72;5020411;28;20187;-80
2023/02/15 05:10:48;;;;;;;10.60;4.67;;;;;;;-0.34;97.22;96633.06;5020613;28;20189;-79
2023/02/15 05:13:14;;;;;;;4.83;4.30;;;;;;;-0.36;97.03;96626.34;5022890;28;20207;-80
2023/02/15 05:15:39;;;;;;;6.77;4.30;;;;;;;-0.40;97.20;96622.25;5006263;28;20274;-78
2023/02/15 05:18:06;;;;;;;5.13;4.37;;;;;;;-0.40;97.25;96624.78;5020292;28;20190;-79
2023/02/15 05:20:31;;;;;;;5.37;4.87;;;;;;;-0.39;97.57;96618.81;5020631;28;20183;-77
2023/02/15 05:22:56;;;;;;;6.00;4.97;;;;;;;-0.36;97.46;96628.88;5021073;28;20203;-80
2023/02/15 05:28:20;;;;;;;5.67;4.27;;;;;;;-0.42;97.42;96627.41;5017842;28;20196;-78
2023/02/15 05:31:05;;;;;;;4.97;4.07;;;;;;;-0.38;97.09;96625.56;5019822;28;20178;-78
2023/02/15 05:33:31;;;;;;;5.97;4.53;;;;;;;-0.46;96.84;96625.00;5025850;28;20215;-78
2023/02/15 05:35:56;;;;;;;6.37;4.70;;;;;;;-0.51;96.67;96625.19;5016965;28;20189;-78
2023/02/15 05:38:21;;;;;;;4.77;3.87;;;;;;;-0.51;97.35;96625.19;5016719;28;20649;-78
2023/02/15 05:40:47;;;;;;;5.77;4.27;;;;;;;-0.49;97.25;96622.56;5028493;28;20205;-79
2023/02/15 05:43:12;;;;;;;5.33;4.83;;;;;;;-0.50;96.85;96616.63;5029627;28;20233;-81
2023/02/15 05:45:37;;;;;;;6.50;4.80;;;;;;;-0.48;97.18;96629.34;5020340;28;20195;-80
2023/02/15 05:48:03;;;;;;;5.03;4.53;;;;;;;-0.45;97.29;96626.66;5009788;28;20257;-78
2023/02/15 05:50:28;;;;;;;4.83;4.40;;;;;;;-0.45;97.19;96634.31;5025247;28;20251;-80
2023/02/15 05:52:53;;;;;;;5.47;4.93;;;;;;;-0.38;97.25;96633.22;5007361;28;20218;-81
2023/02/15 05:55:19;;;;;;;5.90;5.30;;;;;;;-0.34;97.14;96633.06;5010190;28;20680;-80
2023/02/15 05:57:44;;;;;;;6.90;6.30;;;;;;;-0.36;97.08;96629.72;5026454;28;20569;-81
2023/02/15 06:00:11;;;;;;;9.47;6.70;;;;;;;-0.37;97.13;96638.28;5012004;28;20197;-81
2023/02/15 06:02:37;;;;;;;6.80;5.10;;;;;;;-0.37;96.93;96645.94;5023055;28;20321;-81
2023/02/15 06:05:04;;;;;;;6.53;5.87;;;;;;;-0.37;96.74;96648.47;5019371;28;20638;-80
2023/02/15 06:07:29;;;;;;;6.23;5.63;;;;;;;-0.47;96.38;96646.31;5026535;28;20187;-81
2023/02/15 06:09:54;;;;;;;6.73;5.33;;;;;;;-0.50;96.50;96649.81;5030509;28;20548;-80
2023/02/15 06:12:19;;;;;;;5.10;4.23;;;;;;;-0.56;96.17;96642.34;5014188;28;20183;-80
2023/02/15 06:14:45;;;;;;;4.30;3.90;;;;;;;-0.54;96.58;96643.13;5010769;28;20237;-79
2023/02/15 06:17:10;;;;;;;5.13;4.40;;;;;;;-0.55;96.70;96645.75;5018869;28;20194;-80
2023/02/15 06:19:35;;;;;;;5.80;4.20;;;;;;;-0.57;96.82;96650.91;5024873;28;20193;-82
2023/02/15 06:22:01;;;;;;;4.60;4.10;;;;;;;-0.59;97.00;96652.69;5010342;28;20213;-81
2023/02/15 06:24:26;;;;;;;5.70;4.33;;;;;;;-0.58;96.80;96649.25;5011243;28;20218;-80
2023/02/15 06:26:51;;;;;;;5.27;4.40;;;;;;;-0.55;97.03;96654.22;5005073;28;20199;-81
2023/02/15 06:29:16;;;;;;;5.73;4.23;;;;;;;-0.56;96.62;96660.22;5013955;28;20186;-80
2023/02/15 06:31:42;;;;;;;6.57;4.83;;;;;;;-0.57;96.22;96664.50;5035183;28;20193;-81
2023/02/15 06:34:07;;;;;;;7.10;4.43;;;;;;;-0.57;96.00;96663.66;5037459;28;20214;-80
2023/02/15 06:36:32;;;;;;;9.60;5.60;;;;;;;-0.57;96.60;96667.03;5020931;28;20541;-81
2023/02/15 06:38:58;;;;;;;7.90;4.87;;;;;;;-0.51;96.33;96670.28;5027493;28;20222;-81
2023/02/15 06:41:23;;;;;;;5.93;4.17;;;;;;;-0.49;96.53;96673.59;5012603;28;21251;-81
2023/02/15 06:43:49;;;;;;;4.43;3.77;;;;;;;-0.49;96.57;96669.34;5019694;28;20202;-80
2023/02/15 06:46:14;;;;;;;5.23;4.10;;;;;;;-0.47;96.90;96667.56;5011945;28;20186;-81
2023/02/15 06:48:40;;;;;;;3.83;2.97;;;;;;;-0.43;96.13;96669.13;5016028;28;20192;-81
2023/02/15 06:51:05;;;;;;;6.77;3.53;;;;;;;-0.38;95.73;96680.00;5031062;28;20257;-80
2023/02/15 06:53:30;;;;;;;3.53;3.23;;;;;;;-0.38;95.89;96681.72;5036408;28;20217;-81
2023/02/15 06:56:08;;;;;;;5.87;3.50;;;;;;;-0.34;95.60;96680.75;5007182;28;20241;-79
2023/02/15 06:58:37;;;;;;;4.27;3.60;;;;;;;-0.35;95.45;96689.28;5017738;28;20481;-81
2023/02/15 07:01:03;;;;;;;5.47;4.37;;;;;;;-0.34;95.23;96681.56;5025119;28;20203;-81
2023/02/15 07:03:28;;;;;;;4.10;3.10;;;;;;;-0.32;95.00;96682.34;5020992;28;20198;-81
2023/02/15 07:05:55;;;;;;;4.37;2.90;;;;;;;-0.23;94.79;96682.91;5016955;28;20189;-81
2023/02/15 07:08:21;;;;;;;3.57;3.20;;;;;;;-0.21;94.29;96670.91;5009535;28;20198;-81
2023/02/15 07:10:46;;;;;;;4.60;3.40;;;;;;;-0.15;94.33;96684.31;5033100;28;20183;-81
2023/02/15 07:13:11;;;;;;;4.10;3.20;;;;;;;-0.11;94.94;96675.63;5016162;28;20683;-79
2023/02/15 07:15:37;;;;;;;3.43;3.03;;;;;;;-0.06;94.73;96673.75;5014987;28;20682;-81
2023/02/15 07:18:02;;;;;;;5.03;3.43;;;;;;;0.02;94.64;96665.81;5031555;28;20206;-80
2023/02/15 07:20:28;;;;;;;4.77;4.00;;;;;;;0.10;94.15;96668.94;5036654;28;20195;-79
2023/02/15 07:22:54;;;;;;;5.03;4.10;;;;;;;0.18;93.99;96668.66;5031902;28;20219;-80
2023/02/15 07:25:19;;;;;;;5.80;4.30;;;;;;;0.26;94.57;96671.72;5034634;28;20179;-81
2023/02/15 07:27:44;;;;;;;4.77;3.90;;;;;;;0.33;94.26;96674.88;5022155;28;20190;-81
2023/02/15 07:30:12;;;;;;;6.10;4.83;;;;;;;0.42;94.36;96677.09;5034367;28;20276;-80
2023/02/15 07:33:22;;;;;;;6.90;4.77;;;;;;;0.48;94.05;96676.84;5032414;28;20209;-81
2023/02/15 07:35:23;;;;;;;8.17;6.37;;;;;;;0.56;94.26;96677.41;5033757;28;20186;-81
2023/02/15 07:37:48;;;;;;;6.80;5.63;;;;;;;0.64;94.16;96677.94;5018257;28;20531;-80
2023/02/15 07:40:13;;;;;;;7.77;5.97;;;;;;;0.75;94.04;96675.78;5030283;28;20201;-80
2023/02/15 07:42:38;;;;;;;7.13;5.47;;;;;;;0.82;94.14;96672.09;5032928;28;20247;-81
2023/02/15 07:45:04;;;;;;;7.43;5.27;;;;;;;0.92;93.96;96675.13;5033126;28;20191;-81
2023/02/15 07:47:29;;;;;;;8.43;5.70;;;;;;;1.02;94.59;96673.03;5030172;28;20694;-81
2023/02/15 07:49:55;;;;;;;8.33;6.00;;;;;;;1.15;94.48;96674.19;5018268;28;20191;-81
2023/02/15 07:52:20;;;;;;;10.20;7.30;;;;;;;1.25;94.77;96667.81;5012934;28;20183;-80
2023/02/15 07:54:45;;;;;;;16.90;10.03;;;;;;;1.23;93.27;96684.91;5027450;28;20277;-81
2023/02/15 07:57:11;;;;;;;9.27;6.83;;;;;;;1.10;91.29;96681.22;5011298;28;20586;-81
2023/02/15 07:59:36;;;;;;;7.90;6.70;;;;;;;1.13;91.09;96687.03;5012701;28;20265;-81
2023/02/15 08:02:01;;;;;;;10.83;7.13;;;;;;;1.28;90.93;96695.81;5004693;28;21766;-82
2023/02/15 08:04:27;;;;;;;9.37;6.90;;;;;;;1.19;90.70;96695.38;5023461;28;20546;-81
2023/02/15 08:06:54;;;;;;;9.37;6.23;;;;;;;1.25;89.49;96683.16;5033694;28;20194;-80
2023/02/15 08:09:19;;;;;;;7.50;5.17;;;;;;;1.29;89.87;96676.19;5026048;28;20183;-81
2023/02/15 08:11:46;;;;;;;13.63;9.50;;;;;;;1.42;90.13;96679.91;5026510;28;21016;-80
2023/02/15 08:14:13;;;;;;;19.70;10.83;;;;;;;1.44;90.90;96675.53;5020063;28;20206;-80
2023/02/15 08:16:44;;;;;;;15.53;8.63;;;;;;;1.58;90.36;96670.66;5019629;28;20193;-81
2023/02/15 08:19:20;;;;;;;22.43;14.30;;;;;;;1.66;90.87;96678.84;5016730;28;20244;-82
2023/02/15 08:21:54;;;;;;;13.53;11.10;;;;;;;1.77;91.41;96670.72;5034724;28;20213;-80
2023/02/15 08:24:22;;;;;;;11.57;8.53;;;;;;;1.82;90.46;96667.94;5034094;28;20206;-80
2023/02/15 08:26:48;;;;;;;13.67;9.83;;;;;;;1.93;90.93;96666.56;5011300;28;20195;-81
2023/02/15 08:29:14;;;;;;;15.90;11.17;;;;;;;1.97;90.66;96657.84;5027895;28;20187;-80
2023/02/15 08:31:40;;;;;;;18.83;11.43;;;;;;;2.08;90.34;96662.50;5035361;28;20190;-80
2023/02/15 08:34:07;;;;;;;13.80;10.33;;;;;;;2.15;89.99;96661.31;5011358;28;20221;-80
2023/02/15 08:36:32;;;;;;;16.87;11.30;;;;;;;2.22;89.90;96662.72;5022415;28;20210;-81
2023/02/15 08:38:59;;;;;;;24.87;14.93;;;;;;;2.34;89.54;96663.88;5027672;28;20541;-80
2023/02/15 08:41:30;;;;;;;26.07;17.20;;;;;;;2.48;89.57;96668.38;5032674;28;20215;-80
2023/02/15 08:44:00;;;;;;;39.03;21.50;;;;;;;2.64;89.66;96660.78;5022592;28;20233;-81
2023/02/15 08:46:27;;;;;;;23.93;15.73;;;;;;;2.78;89.06;96666.09;5031775;28;20217;-80
2023/02/15 08:48:53;;;;;;;32.43;18.70;;;;;;;2.84;88.00;96664.09;5028757;28;20222;-81
2023/02/15 08:51:23;;;;;;;92.17;45.23;;;;;;;2.92;86.37;96668.03;5023648;28;20266;-80
2023/02/15 08:53:51;;;;;;;47.30;24.17;;;;;;;3.07;85.12;96657.81;5032467;28;20216;-81
2023/02/15 08:56:19;;;;;;;31.67;19.13;;;;;;;3.25;84.79;96666.34;5021237;28;20237;-81
2023/02/15 08:58:44;;;;;;;33.30;19.97;;;;;;;3.35;83.67;96662.44;5033495;28;20209;-82
2023/02/15 09:01:17;;;;;;;32.90;20.17;;;;;;;3.57;82.77;96662.19;5031864;28;20213;-81
2023/02/15 09:03:43;;;;;;;28.17;17.70;;;;;;;3.64;81.74;96663.56;5035111;28;20214;-81
2023/02/15 09:06:08;;;;;;;35.27;19.43;;;;;;;3.80;81.78;96657.59;5023633;28;20187;-81
2023/02/15 09:08:34;;;;;;;17.80;12.60;;;;;;;3.93;80.83;96659.47;5017380;28;20206;-81
2023/02/15 09:11:29;;;;;;;18.13;12.63;;;;;;;4.08;81.00;96664.72;5043989;28;20196;-81
2023/02/15 09:14:00;;;;;;;16.00;11.80;;;;;;;4.16;81.29;96666.00;5038227;28;20210;-80
2023/02/15 09:16:27;;;;;;;16.27;12.13;;;;;;;4.28;79.93;96659.34;5035200;28;20289;-81
2023/02/15 09:18:53;;;;;;;15.23;10.97;;;;;;;4.46;79.98;96653.22;5036288;28;20174;-81
2023/02/15 09:21:20;;;;;;;19.30;10.27;;;;;;;4.60;79.63;96657.63;5027630;28;20252;-82
2023/02/15 09:23:47;;;;;;;13.37;9.97;;;;;;;4.73;78.74;96650.88;5030972;28;20197;-81
2023/02/15 09:26:17;;;;;;;14.80;9.33;;;;;;;4.90;77.93;96651.69;5039482;28;20183;-80
2023/02/15 09:28:43;;;;;;;14.23;10.50;;;;;;;4.98;77.83;96647.75;5017610;28;20264;-82
2023/02/15 09:31:15;;;;;;;13.03;10.03;;;;;;;5.08;75.88;96645.50;5029951;28;20358;-82
2023/02/15 09:33:42;;;;;;;13.33;10.33;;;;;;;5.29;75.67;96648.56;5031617;28;20208;-81
2023/02/15 09:36:26;;;;;;;12.20;9.80;;;;;;;5.36;74.45;96644.75;5027194;28;20193;-81
2023/02/15 09:39:03;;;;;;;15.53;10.40;;;;;;;5.55;73.62;96649.63;5038359;28;20209;-81
2023/02/15 09:41:40;;;;;;;14.13;10.20;;;;;;;5.65;73.86;96643.88;5043261;28;20220;-81
2023/02/15 09:44:15;;;;;;;12.43;9.50;;;;;;;5.74;73.79;96646.81;5037924;28;20595;-81
2023/02/15 09:46:52;;;;;;;13.70;9.77;;;;;;;5.85;72.28;96637.53;5032054;28;20569;-82
2023/02/15 09:49:42;;;;;;;12.27;9.37;;;;;;;6.11;71.85;96636.00;5039281;28;20562;-80
2023/02/15 09:52:34;;;;;;;15.07;10.53;;;;;;;6.16;70.63;96635.69;5041928;28;20178;-81
2023/02/15 09:55:12;;;;;;;13.67;10.53;;;;;;;6.32;70.30;96641.56;5020211;28;20297;-82
2023/02/15 09:57:51;;;;;;;15.07;10.40;;;;;;;6.46;69.71;96630.41;5024821;28;20202;-81
2023/02/15 10:00:43;;;;;;;13.03;10.87;;;;;;;6.48;69.52;96637.13;5017353;28;20194;-81
2023/02/15 10:03:34;;;;;;;15.80;11.23;;;;;;;6.61;67.53;96639.75;5040629;28;20560;-82
2023/02/15 10:06:24;;;;;;;13.57;8.93;;;;;;;6.69;68.02;96640.09;5037857;28;20179;-80
2023/02/15 10:08:58;;;;;;;12.00;9.50;;;;;;;6.77;67.54;96642.19;5028334;28;20179;-82
2023/02/15 10:11:40;;;;;;;12.20;9.30;;;;;;;6.95;67.63;96640.19;5028023;28;20185;-81
2023/02/15 10:14:29;;;;;;;12.00;9.50;;;;;;;7.12;67.37;96636.50;5023200;28;20608;-82
2023/02/15 10:17:08;;;;;;;11.20;8.47;;;;;;;7.12;65.93;96637.34;5033805;28;20186;-82
2023/02/15 10:19:46;;;;;;;13.97;9.07;;;;;;;7.37;65.80;96637.41;5031065;28;20181;-81
2023/02/15 10:22:22;;;;;;;10.63;7.27;;;;;;;7.48;64.29;96635.84;5032072;28;20213;-80
2023/02/15 10:25:11;;;;;;;8.50;7.60;;;;;;;7.55;63.54;96645.69;5027319;28;20202;-80
2023/02/15 10:27:45;;;;;;;8.70;7.43;;;;;;;7.64;63.50;96647.66;5029538;28;20198;-80
2023/02/15 10:30:23;;;;;;;9.93;7.70;;;;;;;7.71;62.80;96655.00;5018280;28;20200;-80
2023/02/15 10:33:02;;;;;;;10.47;7.67;;;;;;;7.75;61.97;96643.50;5024271;28;20191;-80
2023/02/15 10:35:51;;;;;;;10.57;7.37;;;;;;;7.80;61.83;96644.03;5038066;28;20194;-80
2023/02/15 10:38:38;;;;;;;9.13;7.70;;;;;;;7.83;61.36;96649.00;5030601;28;20183;-80
2023/02/15 10:41:25;;;;;;;9.23;7.80;;;;;;;7.91;62.04;96642.38;5038651;28;20289;-80
2023/02/15 10:44:06;;;;;;;11.37;8.30;;;;;;;8.07;61.63;96649.91;5028895;28;20257;-79
2023/02/15 10:47:03;;;;;;;9.60;7.37;;;;;;;8.15;60.97;96645.06;5013742;28;20251;-80
2023/02/15 10:49:53;;;;;;;13.90;10.87;;;;;;;8.07;60.65;96637.00;5026927;28;20192;-80
2023/02/15 10:52:21;;;;;;;10.73;8.50;;;;;;;8.18;60.35;96631.06;5030433;28;20962;-81
2023/02/15 10:55:06;;;;;;;10.63;8.80;;;;;;;8.21;61.81;96644.59;5032070;28;20190;-80
2023/02/15 10:58:05;;;;;;;11.10;9.10;;;;;;;8.05;62.79;96641.44;5033678;28;20684;-80
2023/02/15 11:00:45;;;;;;;11.17;9.63;;;;;;;7.79;63.09;96634.63;5035423;28;20674;-81
2023/02/15 11:03:43;;;;;;;12.17;10.87;;;;;;;7.89;62.84;96631.31;5013245;28;20218;-80
2023/02/15 11:06:14;;;;;;;8.53;7.30;;;;;;;7.92;60.71;96630.28;5026689;28;20198;-81
2023/02/15 11:08:43;;;;;;;6.87;5.50;;;;;;;8.00;57.85;96627.16;5012411;28;20257;-81
2023/02/15 11:11:12;;;;;;;7.40;6.00;;;;;;;8.19;57.58;96630.94;5028823;28;20193;-80
2023/02/15 11:13:45;;;;;;;10.30;7.67;;;;;;;8.36;57.39;96628.97;5020029;28;20946;-82
2023/02/15 11:16:15;;;;;;;5.97;4.47;;;;;;;8.53;55.19;96620.84;5034648;28;20178;-81
2023/02/15 11:18:43;;;;;;;8.40;6.43;;;;;;;8.61;56.26;96621.16;5020310;28;20629;-81
2023/02/15 11:21:26;;;;;;;7.70;5.50;;;;;;;8.75;56.10;96623.59;5030275;28;20744;-82
2023/02/15 11:23:52;;;;;;;19.00;13.83;;;;;;;8.44;60.62;96619.75;5027743;28;20701;-81
2023/02/15 11:26:34;;;;;;;20.13;14.30;;;;;;;7.92;62.35;96630.28;5020503;28;20187;-81
2023/02/15 11:29:22;;;;;;;19.67;14.17;;;;;;;7.88;63.22;96618.50;5013356;28;20186;-80
2023/02/15 11:31:54;;;;;;;22.03;15.27;;;;;;;8.04;62.90;96631.19;5020758;28;20558;-81
2023/02/15 11:34:43;;;;;;;22.77;16.00;;;;;;;7.95;63.71;96624.88;5023337;28;20199;-82
2023/02/15 11:37:11;;;;;;;20.90;15.50;;;;;;;7.87;63.01;96628.00;5029025;28;20275;-82
2023/02/15 11:39:38;;;;;;;22.70;17.90;;;;;;;7.61;64.11;96614.25;5020921;28;20198;-81
2023/02/15 11:42:23;;;;;;;24.33;16.53;;;;;;;7.72;64.47;96620.47;5016856;28;20300;-81
2023/02/15 11:45:14;;;;;;;20.53;15.33;;;;;;;7.82;64.87;96617.13;5014461;28;20199;-81
2023/02/15 11:47:40;;;;;;;28.30;18.00;;;;;;;7.82;64.71;96613.72;5033961;28;20232;-81
2023/02/15 11:50:05;;;;;;;23.40;16.77;;;;;;;7.94;64.30;96605.94;5027231;28;20182;-83
2023/02/15 11:52:31;;;;;;;20.17;14.87;;;;;;;8.16;63.74;96600.13;5030216;28;20354;-81
2023/02/15 11:54:56;;;;;;;21.13;16.30;;;;;;;8.03;63.61;96608.84;5013083;28;20182;-83
2023/02/15 11:57:40;;;;;;;20.97;16.20;;;;;;;8.13;63.54;96596.94;5035741;28;20195;-83
2023/02/15 12:00:36;;;;;;;21.53;15.70;;;;;;;8.26;63.42;96597.72;5013744;28;20610;-82
2023/02/15 12:03:21;;;;;;;21.47;16.60;;;;;;;8.22;63.10;96589.34;5029033;28;20206;-82
2023/02/15 12:05:50;;;;;;;27.37;19.90;;;;;;;8.44;63.32;96585.28;5025224;28;20702;-82
2023/02/15 12:08:20;;;;;;;34.47;22.50;;;;;;;8.72;63.20;96578.94;5020366;28;20183;-83
2023/02/15 12:11:12;;;;;;;23.47;18.17;;;;;;;8.94;61.76;96583.41;5015089;28;20753;-81